sensor_id;sensor_type;location;lat;lon;timestamp;P1;durP1;ratioP1;P2;durP2;ratioP2
31676;SDS011;18385;51.572;6.578;2022-10-26T00:01:29;7.10;;;2.13;;
31676;SDS011;18385;51.572;6.578;2022-10-26T00:03:55;5.85;;;1.67;;
31676;SDS011;18385;51.572;6.578;2022-10-26T00:06:22;6.95;;;1.50;;
31676;SDS011;18385;51.572;6.578;2022-10-26T00:08:55;9.90;;;1.40;;
31676;SDS011;18385;51.572;6.578;2022-10-26T00:11:21;7.10;;;2.20;;
31676;SDS011;18385;51.572;6.578;2022-10-26T00:13:47;4.93;;;1.88;;
31676;SDS011;18385;51.572;6.578;2022-10-26T00:18:39;4.68;;;1.70;;
31676;SDS011;18385;51.572;6.578;2022-10-26T00:21:05;7.22;;;1.90;;
31676;SDS011;18385;51.572;6.578;2022-10-26T00:23:32;5.93;;;1.60;;
31676;SDS011;18385;51.572;6.578;2022-10-26T00:25:58;7.38;;;2.00;;
31676;SDS011;18385;51.572;6.578;2022-10-26T00:28:24;5.60;;;1.52;;
31676;SDS011;18385;51.572;6.578;2022-10-26T00:30:50;7.50;;;1.85;;
31676;SDS011;18385;51.572;6.578;2022-10-26T00:33:16;7.55;;;2.40;;
31676;SDS011;18385;51.572;6.578;2022-10-26T00:35:42;6.85;;;2.60;;
31676;SDS011;18385;51.572;6.578;2022-10-26T00:38:07;8.77;;;2.65;;
31676;SDS011;18385;51.572;6.578;2022-10-26T00:40:33;11.40;;;2.83;;
31676;SDS011;18385;51.572;6.578;2022-10-26T00:42:59;7.40;;;2.80;;
31676;SDS011;18385;51.572;6.578;2022-10-26T00:45:29;24.33;;;3.13;;
31676;SDS011;18385;51.572;6.578;2022-10-26T00:50:38;9.73;;;2.00;;
31676;SDS011;18385;51.572;6.578;2022-10-26T00:53:08;4.78;;;1.50;;
31676;SDS011;18385;51.572;6.578;2022-10-26T00:55:46;5.53;;;1.63;;
31676;SDS011;18385;51.572;6.578;2022-10-26T00:58:13;6.20;;;1.38;;
31676;SDS011;18385;51.572;6.578;2022-10-26T01:00:40;4.75;;;1.58;;
31676;SDS011;18385;51.572;6.578;2022-10-26T01:03:07;3.38;;;1.40;;
31676;SDS011;18385;51.572;6.578;2022-10-26T01:05:35;4.68;;;1.15;;
31676;SDS011;18385;51.572;6.578;2022-10-26T01:08:06;4.18;;;1.10;;
31676;SDS011;18385;51.572;6.578;2022-10-26T01:10:32;2.75;;;1.25;;
31676;SDS011;18385;51.572;6.578;2022-10-26T01:12:59;5.00;;;1.48;;
31676;SDS011;18385;51.572;6.578;2022-10-26T01:21:07;5.97;;;1.02;;
31676;SDS011;18385;51.572;6.578;2022-10-26T01:26:31;3.47;;;1.02;;
31676;SDS011;18385;51.572;6.578;2022-10-26T01:32:26;3.58;;;1.23;;
31676;SDS011;18385;51.572;6.578;2022-10-26T01:37:33;3.47;;;1.15;;
31676;SDS011;18385;51.572;6.578;2022-10-26T01:40:08;4.82;;;1.48;;
31676;SDS011;18385;51.572;6.578;2022-10-26T01:42:46;4.05;;;1.05;;
31676;SDS011;18385;51.572;6.578;2022-10-26T01:45:15;3.13;;;1.02;;
31676;SDS011;18385;51.572;6.578;2022-10-26T01:47:42;4.05;;;1.40;;
31676;SDS011;18385;51.572;6.578;2022-10-26T01:50:09;6.68;;;1.00;;
31676;SDS011;18385;51.572;6.578;2022-10-26T01:52:36;4.30;;;1.00;;
31676;SDS011;18385;51.572;6.578;2022-10-26T02:04:17;4.38;;;0.80;;
31676;SDS011;18385;51.572;6.578;2022-10-26T02:07:00;4.55;;;1.23;;
31676;SDS011;18385;51.572;6.578;2022-10-26T02:15:16;5.00;;;1.50;;
31676;SDS011;18385;51.572;6.578;2022-10-26T02:17:50;3.65;;;0.90;;
31676;SDS011;18385;51.572;6.578;2022-10-26T02:20:29;2.10;;;0.88;;
31676;SDS011;18385;51.572;6.578;2022-10-26T02:23:03;3.25;;;0.88;;
31676;SDS011;18385;51.572;6.578;2022-10-26T02:25:32;2.25;;;0.82;;
31676;SDS011;18385;51.572;6.578;2022-10-26T02:28:05;4.05;;;1.27;;
31676;SDS011;18385;51.572;6.578;2022-10-26T02:30:35;3.25;;;0.95;;
31676;SDS011;18385;51.572;6.578;2022-10-26T02:33:03;6.72;;;0.90;;
31676;SDS011;18385;51.572;6.578;2022-10-26T02:35:32;5.13;;;1.17;;
31676;SDS011;18385;51.572;6.578;2022-10-26T02:38:01;9.55;;;1.63;;
31676;SDS011;18385;51.572;6.578;2022-10-26T02:40:31;5.57;;;2.10;;
31676;SDS011;18385;51.572;6.578;2022-10-26T02:42:59;6.05;;;1.42;;
31676;SDS011;18385;51.572;6.578;2022-10-26T02:45:40;8.32;;;1.83;;
31676;SDS011;18385;51.572;6.578;2022-10-26T02:48:10;7.22;;;1.45;;
31676;SDS011;18385;51.572;6.578;2022-10-26T02:50:58;7.45;;;2.08;;
31676;SDS011;18385;51.572;6.578;2022-10-26T02:53:31;9.25;;;1.90;;
31676;SDS011;18385;51.572;6.578;2022-10-26T02:56:08;5.38;;;1.58;;
31676;SDS011;18385;51.572;6.578;2022-10-26T02:58:42;5.38;;;1.55;;
31676;SDS011;18385;51.572;6.578;2022-10-26T03:01:12;4.22;;;1.40;;
31676;SDS011;18385;51.572;6.578;2022-10-26T03:03:38;7.78;;;1.15;;
31676;SDS011;18385;51.572;6.578;2022-10-26T03:06:04;5.55;;;1.52;;
31676;SDS011;18385;51.572;6.578;2022-10-26T03:08:30;8.75;;;1.70;;
31676;SDS011;18385;51.572;6.578;2022-10-26T03:10:55;8.15;;;2.13;;
31676;SDS011;18385;51.572;6.578;2022-10-26T03:13:22;6.22;;;1.35;;
31676;SDS011;18385;51.572;6.578;2022-10-26T03:15:47;6.00;;;1.27;;
31676;SDS011;18385;51.572;6.578;2022-10-26T03:18:13;3.30;;;1.23;;
31676;SDS011;18385;51.572;6.578;2022-10-26T03:20:39;4.43;;;1.60;;
31676;SDS011;18385;51.572;6.578;2022-10-26T03:23:07;8.93;;;1.90;;
31676;SDS011;18385;51.572;6.578;2022-10-26T03:25:33;5.60;;;1.50;;
31676;SDS011;18385;51.572;6.578;2022-10-26T03:28:02;6.88;;;2.30;;
31676;SDS011;18385;51.572;6.578;2022-10-26T03:30:29;4.53;;;1.77;;
31676;SDS011;18385;51.572;6.578;2022-10-26T03:32:55;5.43;;;1.67;;
31676;SDS011;18385;51.572;6.578;2022-10-26T03:35:21;6.75;;;1.48;;
31676;SDS011;18385;51.572;6.578;2022-10-26T03:37:47;4.45;;;1.80;;
31676;SDS011;18385;51.572;6.578;2022-10-26T03:40:13;6.35;;;1.42;;
31676;SDS011;18385;51.572;6.578;2022-10-26T03:42:39;6.82;;;1.40;;
31676;SDS011;18385;51.572;6.578;2022-10-26T03:45:05;3.55;;;1.30;;
31676;SDS011;18385;51.572;6.578;2022-10-26T03:47:32;8.93;;;1.70;;
31676;SDS011;18385;51.572;6.578;2022-10-26T03:49:57;2.03;;;1.02;;
31676;SDS011;18385;51.572;6.578;2022-10-26T03:52:23;3.72;;;1.27;;
31676;SDS011;18385;51.572;6.578;2022-10-26T03:54:49;11.02;;;1.80;;
31676;SDS011;18385;51.572;6.578;2022-10-26T03:57:15;5.70;;;1.70;;
31676;SDS011;18385;51.572;6.578;2022-10-26T03:59:41;4.78;;;1.58;;
31676;SDS011;18385;51.572;6.578;2022-10-26T04:02:07;5.95;;;1.70;;
31676;SDS011;18385;51.572;6.578;2022-10-26T04:04:33;9.32;;;2.70;;
31676;SDS011;18385;51.572;6.578;2022-10-26T04:06:58;4.55;;;1.30;;
31676;SDS011;18385;51.572;6.578;2022-10-26T04:09:24;8.75;;;1.77;;
31676;SDS011;18385;51.572;6.578;2022-10-26T04:11:49;5.10;;;1.75;;
31676;SDS011;18385;51.572;6.578;2022-10-26T04:14:15;5.50;;;2.10;;
31676;SDS011;18385;51.572;6.578;2022-10-26T04:16:41;6.68;;;1.90;;
31676;SDS011;18385;51.572;6.578;2022-10-26T04:19:06;4.53;;;1.40;;
31676;SDS011;18385;51.572;6.578;2022-10-26T04:21:32;4.45;;;1.67;;
31676;SDS011;18385;51.572;6.578;2022-10-26T04:23:59;5.93;;;1.65;;
31676;SDS011;18385;51.572;6.578;2022-10-26T04:26:25;5.45;;;1.75;;
31676;SDS011;18385;51.572;6.578;2022-10-26T04:28:51;7.53;;;2.13;;
31676;SDS011;18385;51.572;6.578;2022-10-26T04:31:17;5.15;;;1.33;;
31676;SDS011;18385;51.572;6.578;2022-10-26T04:33:43;3.10;;;1.05;;
31676;SDS011;18385;51.572;6.578;2022-10-26T04:36:09;4.13;;;1.38;;
31676;SDS011;18385;51.572;6.578;2022-10-26T04:38:34;6.25;;;1.27;;
31676;SDS011;18385;51.572;6.578;2022-10-26T04:41:00;5.40;;;2.03;;
31676;SDS011;18385;51.572;6.578;2022-10-26T04:43:26;7.22;;;2.10;;
31676;SDS011;18385;51.572;6.578;2022-10-26T04:45:55;2.72;;;1.20;;
31676;SDS011;18385;51.572;6.578;2022-10-26T04:50:47;7.95;;;1.10;;
31676;SDS011;18385;51.572;6.578;2022-10-26T04:53:13;5.15;;;1.00;;
31676;SDS011;18385;51.572;6.578;2022-10-26T04:55:38;4.13;;;1.00;;
31676;SDS011;18385;51.572;6.578;2022-10-26T04:58:04;4.28;;;1.00;;
31676;SDS011;18385;51.572;6.578;2022-10-26T05:00:30;6.03;;;1.10;;
31676;SDS011;18385;51.572;6.578;2022-10-26T05:03:00;2.50;;;0.98;;
31676;SDS011;18385;51.572;6.578;2022-10-26T05:05:27;6.30;;;1.23;;
31676;SDS011;18385;51.572;6.578;2022-10-26T05:07:55;4.28;;;0.98;;
31676;SDS011;18385;51.572;6.578;2022-10-26T05:10:21;2.40;;;0.80;;
31676;SDS011;18385;51.572;6.578;2022-10-26T05:12:50;4.63;;;1.10;;
31676;SDS011;18385;51.572;6.578;2022-10-26T05:15:19;6.80;;;0.93;;
31676;SDS011;18385;51.572;6.578;2022-10-26T05:17:45;3.03;;;0.93;;
31676;SDS011;18385;51.572;6.578;2022-10-26T05:20:11;1.73;;;0.70;;
31676;SDS011;18385;51.572;6.578;2022-10-26T05:22:38;2.35;;;0.75;;
31676;SDS011;18385;51.572;6.578;2022-10-26T05:25:05;3.55;;;0.57;;
31676;SDS011;18385;51.572;6.578;2022-10-26T05:27:31;2.15;;;0.73;;
31676;SDS011;18385;51.572;6.578;2022-10-26T05:29:57;4.28;;;0.98;;
31676;SDS011;18385;51.572;6.578;2022-10-26T05:32:22;3.22;;;1.15;;
31676;SDS011;18385;51.572;6.578;2022-10-26T05:34:48;2.88;;;0.55;;
31676;SDS011;18385;51.572;6.578;2022-10-26T05:37:13;2.42;;;0.60;;
31676;SDS011;18385;51.572;6.578;2022-10-26T05:39:39;1.20;;;0.65;;
31676;SDS011;18385;51.572;6.578;2022-10-26T05:42:05;1.55;;;0.60;;
31676;SDS011;18385;51.572;6.578;2022-10-26T05:44:30;2.40;;;0.93;;
31676;SDS011;18385;51.572;6.578;2022-10-26T05:46:56;3.70;;;1.00;;
31676;SDS011;18385;51.572;6.578;2022-10-26T05:49:22;3.67;;;0.70;;
31676;SDS011;18385;51.572;6.578;2022-10-26T05:51:47;4.32;;;1.05;;
31676;SDS011;18385;51.572;6.578;2022-10-26T05:54:13;5.53;;;1.30;;
31676;SDS011;18385;51.572;6.578;2022-10-26T05:56:39;4.80;;;1.20;;
31676;SDS011;18385;51.572;6.578;2022-10-26T05:59:12;2.25;;;0.75;;
31676;SDS011;18385;51.572;6.578;2022-10-26T06:07:03;3.15;;;0.90;;
31676;SDS011;18385;51.572;6.578;2022-10-26T06:09:33;4.15;;;1.00;;
31676;SDS011;18385;51.572;6.578;2022-10-26T06:11:59;4.20;;;1.08;;
31676;SDS011;18385;51.572;6.578;2022-10-26T06:14:26;6.47;;;1.40;;
31676;SDS011;18385;51.572;6.578;2022-10-26T06:22:04;4.88;;;1.38;;
31676;SDS011;18385;51.572;6.578;2022-10-26T06:24:53;5.38;;;1.77;;
31676;SDS011;18385;51.572;6.578;2022-10-26T06:27:26;5.32;;;1.40;;
31676;SDS011;18385;51.572;6.578;2022-10-26T06:30:05;5.07;;;0.98;;
31676;SDS011;18385;51.572;6.578;2022-10-26T06:32:45;6.07;;;1.55;;
31676;SDS011;18385;51.572;6.578;2022-10-26T06:38:01;4.22;;;1.30;;
31676;SDS011;18385;51.572;6.578;2022-10-26T06:40:32;4.13;;;1.08;;
31676;SDS011;18385;51.572;6.578;2022-10-26T06:43:00;2.03;;;0.93;;
31676;SDS011;18385;51.572;6.578;2022-10-26T06:45:26;3.65;;;0.82;;
31676;SDS011;18385;51.572;6.578;2022-10-26T06:48:03;4.97;;;1.05;;
31676;SDS011;18385;51.572;6.578;2022-10-26T06:55:57;5.03;;;0.90;;
31676;SDS011;18385;51.572;6.578;2022-10-26T06:58:25;4.75;;;1.40;;
31676;SDS011;18385;51.572;6.578;2022-10-26T07:00:54;3.97;;;1.30;;
31676;SDS011;18385;51.572;6.578;2022-10-26T07:03:20;4.90;;;0.90;;
31676;SDS011;18385;51.572;6.578;2022-10-26T07:05:46;6.82;;;1.33;;
31676;SDS011;18385;51.572;6.578;2022-10-26T07:08:12;2.53;;;0.70;;
31676;SDS011;18385;51.572;6.578;2022-10-26T07:10:38;4.60;;;0.90;;
31676;SDS011;18385;51.572;6.578;2022-10-26T07:13:04;7.25;;;1.55;;
31676;SDS011;18385;51.572;6.578;2022-10-26T07:15:31;3.95;;;0.68;;
31676;SDS011;18385;51.572;6.578;2022-10-26T07:17:57;4.10;;;0.88;;
31676;SDS011;18385;51.572;6.578;2022-10-26T07:20:23;4.50;;;1.23;;
31676;SDS011;18385;51.572;6.578;2022-10-26T07:22:52;8.52;;;1.45;;
31676;SDS011;18385;51.572;6.578;2022-10-26T07:25:19;3.78;;;0.65;;
31676;SDS011;18385;51.572;6.578;2022-10-26T07:27:45;13.68;;;1.13;;
31676;SDS011;18385;51.572;6.578;2022-10-26T07:30:11;6.68;;;1.00;;
31676;SDS011;18385;51.572;6.578;2022-10-26T07:32:37;9.15;;;1.70;;
31676;SDS011;18385;51.572;6.578;2022-10-26T07:35:03;4.20;;;1.40;;
31676;SDS011;18385;51.572;6.578;2022-10-26T07:37:29;2.72;;;1.05;;
31676;SDS011;18385;51.572;6.578;2022-10-26T07:39:54;3.97;;;1.58;;
31676;SDS011;18385;51.572;6.578;2022-10-26T07:42:20;7.93;;;1.73;;
31676;SDS011;18385;51.572;6.578;2022-10-26T07:44:46;8.43;;;0.98;;
31676;SDS011;18385;51.572;6.578;2022-10-26T07:47:11;3.97;;;0.93;;
31676;SDS011;18385;51.572;6.578;2022-10-26T07:49:37;3.35;;;1.00;;
31676;SDS011;18385;51.572;6.578;2022-10-26T07:52:03;2.85;;;0.90;;
31676;SDS011;18385;51.572;6.578;2022-10-26T07:54:28;3.38;;;0.70;;
31676;SDS011;18385;51.572;6.578;2022-10-26T07:56:54;4.43;;;1.05;;
31676;SDS011;18385;51.572;6.578;2022-10-26T07:59:20;7.82;;;1.30;;
31676;SDS011;18385;51.572;6.578;2022-10-26T08:01:45;7.15;;;1.00;;
31676;SDS011;18385;51.572;6.578;2022-10-26T08:04:11;9.77;;;1.52;;
31676;SDS011;18385;51.572;6.578;2022-10-26T08:06:36;4.40;;;1.20;;
31676;SDS011;18385;51.572;6.578;2022-10-26T08:09:02;2.88;;;1.13;;
31676;SDS011;18385;51.572;6.578;2022-10-26T08:11:28;4.38;;;1.20;;
31676;SDS011;18385;51.572;6.578;2022-10-26T08:13:54;3.92;;;1.00;;
31676;SDS011;18385;51.572;6.578;2022-10-26T08:16:19;7.43;;;1.30;;
31676;SDS011;18385;51.572;6.578;2022-10-26T08:18:46;5.20;;;1.33;;
31676;SDS011;18385;51.572;6.578;2022-10-26T08:21:13;4.45;;;1.17;;
31676;SDS011;18385;51.572;6.578;2022-10-26T08:23:39;5.00;;;1.38;;
31676;SDS011;18385;51.572;6.578;2022-10-26T08:26:05;12.07;;;2.05;;
31676;SDS011;18385;51.572;6.578;2022-10-26T08:28:38;4.25;;;1.98;;
31676;SDS011;18385;51.572;6.578;2022-10-26T08:31:05;9.20;;;2.03;;
31676;SDS011;18385;51.572;6.578;2022-10-26T08:33:31;6.55;;;2.10;;
31676;SDS011;18385;51.572;6.578;2022-10-26T08:35:58;6.55;;;1.90;;
31676;SDS011;18385;51.572;6.578;2022-10-26T08:38:25;7.20;;;1.83;;
31676;SDS011;18385;51.572;6.578;2022-10-26T08:40:51;5.57;;;1.80;;
31676;SDS011;18385;51.572;6.578;2022-10-26T08:43:25;8.52;;;2.05;;
31676;SDS011;18385;51.572;6.578;2022-10-26T08:48:28;9.15;;;1.75;;
31676;SDS011;18385;51.572;6.578;2022-10-26T08:50:59;4.25;;;2.28;;
31676;SDS011;18385;51.572;6.578;2022-10-26T08:53:37;4.20;;;1.50;;
31676;SDS011;18385;51.572;6.578;2022-10-26T08:56:11;8.70;;;2.63;;
31676;SDS011;18385;51.572;6.578;2022-10-26T08:59:03;8.35;;;1.88;;
31676;SDS011;18385;51.572;6.578;2022-10-26T09:01:44;8.98;;;2.65;;
31676;SDS011;18385;51.572;6.578;2022-10-26T09:04:10;6.97;;;2.00;;
31676;SDS011;18385;51.572;6.578;2022-10-26T09:06:43;4.97;;;1.48;;
31676;SDS011;18385;51.572;6.578;2022-10-26T09:09:35;6.50;;;2.00;;
31676;SDS011;18385;51.572;6.578;2022-10-26T09:23:22;7.25;;;1.92;;
31676;SDS011;18385;51.572;6.578;2022-10-26T09:25:58;6.15;;;1.98;;
31676;SDS011;18385;51.572;6.578;2022-10-26T09:28:25;9.38;;;1.63;;
31676;SDS011;18385;51.572;6.578;2022-10-26T09:30:54;4.55;;;1.20;;
31676;SDS011;18385;51.572;6.578;2022-10-26T09:33:23;3.63;;;0.95;;
31676;SDS011;18385;51.572;6.578;2022-10-26T09:35:51;4.63;;;1.60;;
31676;SDS011;18385;51.572;6.578;2022-10-26T09:38:31;3.85;;;0.82;;
31676;SDS011;18385;51.572;6.578;2022-10-26T09:46:08;13.98;;;3.17;;
31676;SDS011;18385;51.572;6.578;2022-10-26T09:48:53;7.65;;;1.98;;
31676;SDS011;18385;51.572;6.578;2022-10-26T09:51:22;6.45;;;1.80;;
31676;SDS011;18385;51.572;6.578;2022-10-26T09:53:47;6.18;;;1.52;;
31676;SDS011;18385;51.572;6.578;2022-10-26T09:56:14;7.55;;;1.23;;
31676;SDS011;18385;51.572;6.578;2022-10-26T10:06:41;2.97;;;0.70;;
31676;SDS011;18385;51.572;6.578;2022-10-26T10:09:18;5.88;;;1.02;;
31676;SDS011;18385;51.572;6.578;2022-10-26T10:14:27;1.92;;;0.90;;
31676;SDS011;18385;51.572;6.578;2022-10-26T10:17:03;4.45;;;0.80;;
31676;SDS011;18385;51.572;6.578;2022-10-26T10:19:32;6.85;;;1.13;;
31676;SDS011;18385;51.572;6.578;2022-10-26T10:22:07;5.17;;;0.97;;
31676;SDS011;18385;51.572;6.578;2022-10-26T10:24:39;5.00;;;1.30;;
31676;SDS011;18385;51.572;6.578;2022-10-26T10:29:46;4.78;;;0.90;;
31676;SDS011;18385;51.572;6.578;2022-10-26T10:32:16;3.72;;;0.85;;
31676;SDS011;18385;51.572;6.578;2022-10-26T10:35:00;2.28;;;0.80;;
31676;SDS011;18385;51.572;6.578;2022-10-26T10:37:39;3.03;;;1.10;;
31676;SDS011;18385;51.572;6.578;2022-10-26T10:40:16;3.85;;;0.73;;
31676;SDS011;18385;51.572;6.578;2022-10-26T10:42:44;7.50;;;1.25;;
31676;SDS011;18385;51.572;6.578;2022-10-26T10:45:18;4.43;;;1.00;;
31676;SDS011;18385;51.572;6.578;2022-10-26T10:50:27;3.63;;;0.80;;
31676;SDS011;18385;51.572;6.578;2022-10-26T10:53:11;5.30;;;1.30;;
31676;SDS011;18385;51.572;6.578;2022-10-26T10:55:38;7.15;;;1.00;;
31676;SDS011;18385;51.572;6.578;2022-10-26T10:58:15;2.90;;;0.65;;
31676;SDS011;18385;51.572;6.578;2022-10-26T11:00:51;2.88;;;0.75;;
31676;SDS011;18385;51.572;6.578;2022-10-26T11:03:36;1.48;;;0.68;;
31676;SDS011;18385;51.572;6.578;2022-10-26T11:08:48;3.35;;;1.15;;
31676;SDS011;18385;51.572;6.578;2022-10-26T11:22:19;2.80;;;0.70;;
31676;SDS011;18385;51.572;6.578;2022-10-26T11:24:49;6.05;;;1.23;;
31676;SDS011;18385;51.572;6.578;2022-10-26T11:27:41;4.95;;;1.10;;
31676;SDS011;18385;51.572;6.578;2022-10-26T11:30:14;4.47;;;0.90;;
31676;SDS011;18385;51.572;6.578;2022-10-26T11:35:34;2.47;;;0.77;;
31676;SDS011;18385;51.572;6.578;2022-10-26T11:38:16;2.33;;;0.60;;
31676;SDS011;18385;51.572;6.578;2022-10-26T11:43:49;2.70;;;0.90;;
31676;SDS011;18385;51.572;6.578;2022-10-26T11:46:40;4.10;;;0.70;;
31676;SDS011;18385;51.572;6.578;2022-10-26T11:54:53;5.20;;;0.95;;
31676;SDS011;18385;51.572;6.578;2022-10-26T11:57:26;3.70;;;0.70;;
31676;SDS011;18385;51.572;6.578;2022-10-26T11:59:54;2.13;;;0.98;;
31676;SDS011;18385;51.572;6.578;2022-10-26T12:02:41;4.13;;;0.77;;
31676;SDS011;18385;51.572;6.578;2022-10-26T12:08:09;2.83;;;0.77;;
31676;SDS011;18385;51.572;6.578;2022-10-26T12:10:40;2.40;;;0.60;;
31676;SDS011;18385;51.572;6.578;2022-10-26T12:16:14;5.85;;;0.88;;
31676;SDS011;18385;51.572;6.578;2022-10-26T12:19:00;1.60;;;0.63;;
31676;SDS011;18385;51.572;6.578;2022-10-26T12:21:30;1.88;;;0.45;;
31676;SDS011;18385;51.572;6.578;2022-10-26T12:23:58;2.65;;;0.50;;
31676;SDS011;18385;51.572;6.578;2022-10-26T12:39:33;2.22;;;0.60;;
31676;SDS011;18385;51.572;6.578;2022-10-26T12:47:58;2.35;;;0.38;;
31676;SDS011;18385;51.572;6.578;2022-10-26T12:52:30;2.03;;;0.30;;
31676;SDS011;18385;51.572;6.578;2022-10-26T13:00:14;3.03;;;0.30;;
31676;SDS011;18385;51.572;6.578;2022-10-26T13:05:40;2.42;;;0.52;;
31676;SDS011;18385;51.572;6.578;2022-10-26T13:08:42;1.55;;;0.90;;
31676;SDS011;18385;51.572;6.578;2022-10-26T13:11:32;1.95;;;0.40;;
31676;SDS011;18385;51.572;6.578;2022-10-26T13:14:03;2.58;;;0.63;;
31676;SDS011;18385;51.572;6.578;2022-10-26T13:16:30;1.88;;;0.30;;
31676;SDS011;18385;51.572;6.578;2022-10-26T13:18:56;2.13;;;0.43;;
31676;SDS011;18385;51.572;6.578;2022-10-26T13:21:23;1.73;;;0.35;;
31676;SDS011;18385;51.572;6.578;2022-10-26T13:26:20;1.42;;;0.30;;
31676;SDS011;18385;51.572;6.578;2022-10-26T13:28:55;4.60;;;0.40;;
31676;SDS011;18385;51.572;6.578;2022-10-26T13:33:53;1.35;;;0.50;;
31676;SDS011;18385;51.572;6.578;2022-10-26T13:36:40;4.18;;;0.40;;
31676;SDS011;18385;51.572;6.578;2022-10-26T13:39:19;1.92;;;0.50;;
31676;SDS011;18385;51.572;6.578;2022-10-26T13:41:49;3.22;;;0.47;;
31676;SDS011;18385;51.572;6.578;2022-10-26T13:47:14;1.45;;;0.60;;
31676;SDS011;18385;51.572;6.578;2022-10-26T13:49:46;1.52;;;0.63;;
31676;SDS011;18385;51.572;6.578;2022-10-26T13:52:18;2.78;;;0.57;;
31676;SDS011;18385;51.572;6.578;2022-10-26T13:54:52;1.85;;;0.40;;
31676;SDS011;18385;51.572;6.578;2022-10-26T13:57:22;2.63;;;0.60;;
31676;SDS011;18385;51.572;6.578;2022-10-26T13:59:58;2.03;;;0.30;;
31676;SDS011;18385;51.572;6.578;2022-10-26T14:02:39;1.83;;;0.47;;
31676;SDS011;18385;51.572;6.578;2022-10-26T14:05:12;1.83;;;0.30;;
31676;SDS011;18385;51.572;6.578;2022-10-26T14:07:41;1.77;;;0.50;;
31676;SDS011;18385;51.572;6.578;2022-10-26T14:12:53;1.33;;;0.47;;
31676;SDS011;18385;51.572;6.578;2022-10-26T14:15:29;5.72;;;0.30;;
31676;SDS011;18385;51.572;6.578;2022-10-26T14:17:56;2.17;;;0.43;;
31676;SDS011;18385;51.572;6.578;2022-10-26T14:20:24;2.45;;;0.60;;
31676;SDS011;18385;51.572;6.578;2022-10-26T14:22:52;1.70;;;0.30;;
31676;SDS011;18385;51.572;6.578;2022-10-26T14:25:22;2.08;;;0.40;;
31676;SDS011;18385;51.572;6.578;2022-10-26T14:27:49;1.70;;;0.73;;
31676;SDS011;18385;51.572;6.578;2022-10-26T14:30:36;2.47;;;0.40;;
31676;SDS011;18385;51.572;6.578;2022-10-26T14:33:01;3.25;;;0.50;;
31676;SDS011;18385;51.572;6.578;2022-10-26T14:35:43;2.45;;;0.43;;
31676;SDS011;18385;51.572;6.578;2022-10-26T14:38:22;1.38;;;0.40;;
31676;SDS011;18385;51.572;6.578;2022-10-26T14:40:54;0.70;;;0.30;;
31676;SDS011;18385;51.572;6.578;2022-10-26T14:43:22;3.08;;;0.40;;
31676;SDS011;18385;51.572;6.578;2022-10-26T14:45:50;3.30;;;0.22;;
31676;SDS011;18385;51.572;6.578;2022-10-26T14:53:48;0.85;;;0.20;;
31676;SDS011;18385;51.572;6.578;2022-10-26T14:56:23;1.50;;;0.40;;
31676;SDS011;18385;51.572;6.578;2022-10-26T14:58:52;1.33;;;0.30;;
31676;SDS011;18385;51.572;6.578;2022-10-26T15:04:20;4.32;;;0.50;;
31676;SDS011;18385;51.572;6.578;2022-10-26T15:06:51;2.65;;;0.75;;
31676;SDS011;18385;51.572;6.578;2022-10-26T15:12:24;1.20;;;0.40;;
31676;SDS011;18385;51.572;6.578;2022-10-26T15:17:42;4.07;;;0.93;;
31676;SDS011;18385;51.572;6.578;2022-10-26T15:20:23;0.75;;;0.30;;
31676;SDS011;18385;51.572;6.578;2022-10-26T15:22:51;2.27;;;0.50;;
31676;SDS011;18385;51.572;6.578;2022-10-26T15:25:19;1.88;;;0.73;;
31676;SDS011;18385;51.572;6.578;2022-10-26T15:27:48;5.80;;;1.00;;
31676;SDS011;18385;51.572;6.578;2022-10-26T15:32:52;2.83;;;0.60;;
31676;SDS011;18385;51.572;6.578;2022-10-26T15:37:48;4.20;;;0.40;;
31676;SDS011;18385;51.572;6.578;2022-10-26T15:40:15;1.10;;;0.30;;
31676;SDS011;18385;51.572;6.578;2022-10-26T15:42:41;1.65;;;0.38;;
31676;SDS011;18385;51.572;6.578;2022-10-26T15:45:24;2.03;;;0.30;;
31676;SDS011;18385;51.572;6.578;2022-10-26T15:47:55;1.13;;;0.60;;
31676;SDS011;18385;51.572;6.578;2022-10-26T15:50:24;4.50;;;0.50;;
31676;SDS011;18385;51.572;6.578;2022-10-26T15:52:58;5.60;;;1.20;;
31676;SDS011;18385;51.572;6.578;2022-10-26T15:55:26;2.33;;;0.50;;
31676;SDS011;18385;51.572;6.578;2022-10-26T15:57:55;2.22;;;0.30;;
31676;SDS011;18385;51.572;6.578;2022-10-26T16:00:21;3.28;;;0.57;;
31676;SDS011;18385;51.572;6.578;2022-10-26T16:02:47;2.63;;;0.57;;
31676;SDS011;18385;51.572;6.578;2022-10-26T16:05:13;5.60;;;1.15;;
31676;SDS011;18385;51.572;6.578;2022-10-26T16:07:40;2.63;;;0.40;;
31676;SDS011;18385;51.572;6.578;2022-10-26T16:10:16;2.65;;;0.52;;
31676;SDS011;18385;51.572;6.578;2022-10-26T16:12:46;3.28;;;0.95;;
31676;SDS011;18385;51.572;6.578;2022-10-26T16:15:14;2.40;;;0.45;;
31676;SDS011;18385;51.572;6.578;2022-10-26T16:17:48;1.60;;;0.47;;
31676;SDS011;18385;51.572;6.578;2022-10-26T16:20:16;3.28;;;0.82;;
31676;SDS011;18385;51.572;6.578;2022-10-26T16:22:47;3.88;;;0.40;;
31676;SDS011;18385;51.572;6.578;2022-10-26T16:25:14;3.45;;;0.50;;
31676;SDS011;18385;51.572;6.578;2022-10-26T16:27:41;5.72;;;0.80;;
31676;SDS011;18385;51.572;6.578;2022-10-26T16:30:07;1.90;;;0.65;;
31676;SDS011;18385;51.572;6.578;2022-10-26T16:32:33;6.28;;;0.80;;
31676;SDS011;18385;51.572;6.578;2022-10-26T16:34:59;2.83;;;0.70;;
31676;SDS011;18385;51.572;6.578;2022-10-26T16:37:27;4.68;;;0.68;;
31676;SDS011;18385;51.572;6.578;2022-10-26T16:39:53;3.17;;;0.70;;
31676;SDS011;18385;51.572;6.578;2022-10-26T16:42:18;2.22;;;0.60;;
31676;SDS011;18385;51.572;6.578;2022-10-26T16:44:44;3.25;;;0.90;;
31676;SDS011;18385;51.572;6.578;2022-10-26T16:47:10;2.72;;;0.73;;
31676;SDS011;18385;51.572;6.578;2022-10-26T16:49:35;4.70;;;0.60;;
31676;SDS011;18385;51.572;6.578;2022-10-26T16:52:02;1.35;;;0.60;;
31676;SDS011;18385;51.572;6.578;2022-10-26T16:54:29;2.78;;;0.50;;
31676;SDS011;18385;51.572;6.578;2022-10-26T16:56:55;3.28;;;0.77;;
31676;SDS011;18385;51.572;6.578;2022-10-26T16:59:20;2.47;;;0.70;;
31676;SDS011;18385;51.572;6.578;2022-10-26T17:01:46;1.70;;;0.75;;
31676;SDS011;18385;51.572;6.578;2022-10-26T17:04:12;2.22;;;0.40;;
31676;SDS011;18385;51.572;6.578;2022-10-26T17:06:38;4.47;;;0.73;;
31676;SDS011;18385;51.572;6.578;2022-10-26T17:09:03;2.25;;;0.50;;
31676;SDS011;18385;51.572;6.578;2022-10-26T17:11:29;1.77;;;0.40;;
31676;SDS011;18385;51.572;6.578;2022-10-26T17:13:55;2.72;;;0.40;;
31676;SDS011;18385;51.572;6.578;2022-10-26T17:16:21;1.42;;;0.50;;
31676;SDS011;18385;51.572;6.578;2022-10-26T17:18:48;2.17;;;0.40;;
31676;SDS011;18385;51.572;6.578;2022-10-26T17:21:15;2.55;;;0.60;;
31676;SDS011;18385;51.572;6.578;2022-10-26T17:23:43;4.75;;;0.45;;
31676;SDS011;18385;51.572;6.578;2022-10-26T17:26:09;1.55;;;0.60;;
31676;SDS011;18385;51.572;6.578;2022-10-26T17:28:37;2.13;;;0.55;;
31676;SDS011;18385;51.572;6.578;2022-10-26T17:31:13;1.50;;;0.45;;
31676;SDS011;18385;51.572;6.578;2022-10-26T17:33:40;2.65;;;0.57;;
31676;SDS011;18385;51.572;6.578;2022-10-26T17:36:08;2.03;;;0.40;;
31676;SDS011;18385;51.572;6.578;2022-10-26T17:38:36;4.15;;;1.00;;
31676;SDS011;18385;51.572;6.578;2022-10-26T17:41:04;1.13;;;0.50;;
31676;SDS011;18385;51.572;6.578;2022-10-26T17:43:31;2.25;;;0.73;;
31676;SDS011;18385;51.572;6.578;2022-10-26T17:45:59;1.63;;;0.57;;
31676;SDS011;18385;51.572;6.578;2022-10-26T17:48:26;2.30;;;0.57;;
31676;SDS011;18385;51.572;6.578;2022-10-26T17:50:52;3.67;;;0.40;;
31676;SDS011;18385;51.572;6.578;2022-10-26T17:53:18;4.28;;;1.02;;
31676;SDS011;18385;51.572;6.578;2022-10-26T17:55:44;1.70;;;0.40;;
31676;SDS011;18385;51.572;6.578;2022-10-26T17:58:09;0.80;;;0.40;;
31676;SDS011;18385;51.572;6.578;2022-10-26T18:00:35;1.88;;;0.47;;
31676;SDS011;18385;51.572;6.578;2022-10-26T18:03:01;12.25;;;1.02;;